Chippewa — WDI6606 — position and weather

sailwx.info

Track history (hours):
 
Tides and Currents Weather Stations Pressure Air Temp Water Temp Dewpoint Dewpoint Depression Visibility Wind Speed Wind Dir Waves Ship Positions

Chippewa

Owner: MIFC SHIPPING LLC, Mackinac Island, MI. More information available from US FCC via Universal Licensing System and Coast Guard Vessel Documentation Center.

Last reported at 2018-Jul-22 00:03 UTC. Time now 2018-Jul-22 07:00 UTC.
Position N 45°46' W 084°43'.

Length 27 m.

Type: Passenger vessel. MMSI: 367720370.

Date/timePositionNaut miles runAvg speedWind from/ knotsBaromVisibWave heightAir tempDewpointWater temp
2018-Jul-22 00:03N 45°46' W 084°43'0 0.0
2018-Jul-22 00:00N 45°46' W 084°43'5 9.3
2018-Jul-21 23:30N 45°49' W 084°38'2 3.5
2018-Jul-21 23:00N 45°51' W 084°37'4 8.5
2018-Jul-21 22:30N 45°48' W 084°41'0 0.8
2018-Jul-21 22:00N 45°47' W 084°41'5 9.1
2018-Jul-21 21:30N 45°51' W 084°37'2 3.7
2018-Jul-21 21:00N 45°49' W 084°38'5 9.1
2018-Jul-21 20:29N 45°46' W 084°43'2 4.3
2018-Jul-21 20:00N 45°48' W 084°41'4 8.4
2018-Jul-21 19:29N 45°51' W 084°37'4 8.9
2018-Jul-21 19:01N 45°48' W 084°41'0 0.9
2018-Jul-21 18:31N 45°48' W 084°41'5 8.9
2018-Jul-21 18:00N 45°51' W 084°37'1 3.0
2018-Jul-21 17:30N 45°50' W 084°38'5 9.9
2018-Jul-21 17:00N 45°46' W 084°43'2 4.3
2018-Jul-21 16:29N 45°48' W 084°41'4 8.6
2018-Jul-21 16:00N 45°51' W 084°37'4 8.7
2018-Jul-21 15:30N 45°48' W 084°41'2 4.4
2018-Jul-21 15:01N 45°46' W 084°43'4 8.9
2018-Jul-21 14:30N 45°49' W 084°39'3 2.5
2018-Jul-21 13:30N 45°47' W 084°41'2 4.0
2018-Jul-21 13:01N 45°46' W 084°43'0 0.0
2018-Jul-21 00:00N 45°46' W 084°43'5 9.5
2018-Jul-20 23:31N 45°50' W 084°39'2 3.3
2018-Jul-20 22:59N 45°51' W 084°37'4 8.6
2018-Jul-20 22:30N 45°48' W 084°41'1 1.4
2018-Jul-20 22:00N 45°47' W 084°41'5 9.4
2018-Jul-20 21:30N 45°51' W 084°37'2 3.5
2018-Jul-20 21:00N 45°49' W 084°38'5 9.6
2018-Jul-20 20:30N 45°46' W 084°43'3 6.4
2018-Jul-20 20:00N 45°49' W 084°40'3 6.5
2018-Jul-20 19:30N 45°51' W 084°37'510.0
2018-Jul-20 18:59N 45°47' W 084°42'1 1.6
2018-Jul-20 18:30N 45°48' W 084°41'4 8.9
2018-Jul-20 18:00N 45°51' W 084°37'2 3.1
2018-Jul-20 17:30N 45°50' W 084°38'5 8.6
2018-Jul-20 16:56N 45°46' W 084°43'3 7.0
2018-Jul-20 16:30N 45°48' W 084°40'3 6.9
2018-Jul-20 16:00N 45°51' W 084°37'5 9.3
2018-Jul-20 15:30N 45°47' W 084°41'2 3.4
2018-Jul-20 14:59N 45°46' W 084°43'4 8.9
2018-Jul-20 14:30N 45°49' W 084°39'2 4.5
2018-Jul-20 14:00N 45°51' W 084°37'5 8.7
2018-Jul-20 13:29N 45°47' W 084°41'2 0.2
2018-Jul-20 02:06N 45°46' W 084°43'0 0.1
2018-Jul-20 01:59N 45°46' W 084°43'3 5.4
2018-Jul-20 01:30N 45°49' W 084°44'0 0.9
2018-Jul-20 01:00N 45°49' W 084°44'3 5.7
2018-Jul-20 00:29N 45°46' W 084°43'0 0.0
2018-Jul-20 00:00N 45°46' W 084°43'4 8.8
2018-Jul-19 23:30N 45°49' W 084°39'2 4.0
2018-Jul-19 23:00N 45°51' W 084°37'4 8.1
2018-Jul-19 22:30N 45°48' W 084°41'1 1.6
2018-Jul-19 22:00N 45°47' W 084°42'5 9.7
2018-Jul-19 21:30N 45°51' W 084°37'1 2.8
2018-Jul-19 21:00N 45°50' W 084°38'510.0
2018-Jul-19 20:30N 45°46' W 084°43'2 3.1
2018-Jul-19 20:00N 45°47' W 084°42'5 9.5
2018-Jul-19 19:30N 45°51' W 084°37'4 8.8
2018-Jul-19 19:00N 45°48' W 084°41'0 0.8
2018-Jul-19 18:30N 45°47' W 084°41'5 9.1
2018-Jul-19 17:59N 45°51' W 084°37'1 2.9
2018-Jul-19 17:30N 45°50' W 084°38'510.2
2018-Jul-19 17:00N 45°46' W 084°43'2 3.9
2018-Jul-19 16:30N 45°48' W 084°41'4 8.8
2018-Jul-19 16:00N 45°51' W 084°37'4 8.4
2018-Jul-19 15:30N 45°48' W 084°41'2 4.5
2018-Jul-19 15:00N 45°46' W 084°43'5 8.8
2018-Jul-19 14:28N 45°49' W 084°38'3 2.7
2018-Jul-19 13:30N 45°48' W 084°41'2 4.2
2018-Jul-19 13:00N 45°46' W 084°43'0 0.0
2018-Jul-18 23:56N 45°46' W 084°43'410.5
2018-Jul-18 23:30N 45°49' W 084°39'2 4.0
2018-Jul-18 23:00N 45°51' W 084°37'4 7.9
2018-Jul-18 22:30N 45°48' W 084°40'1 1.7
2018-Jul-18 22:00N 45°47' W 084°41'5 9.7
2018-Jul-18 21:30N 45°51' W 084°37'2 3.1
2018-Jul-18 21:00N 45°50' W 084°38'510.0
2018-Jul-18 20:31N 45°46' W 084°43'2 4.0
2018-Jul-18 20:01N 45°48' W 084°41'4 8.7
2018-Jul-18 19:30N 45°51' W 084°37'4 8.3
2018-Jul-18 19:00N 45°48' W 084°41'1 1.0
2018-Jul-18 18:30N 45°47' W 084°41'5 9.3
2018-Jul-18 18:01N 45°51' W 084°37'1 2.6
2018-Jul-18 17:30N 45°50' W 084°38'1 0.1
2018-Jul-17 19:29N 45°51' W 084°37'510.6
2018-Jul-17 19:00N 45°48' W 084°43'1 2.4
2018-Jul-17 18:30N 45°48' W 084°41'4 8.6
2018-Jul-17 18:00N 45°51' W 084°37'2 3.1
2018-Jul-17 17:30N 45°50' W 084°38'5 9.0
2018-Jul-17 16:57N 45°46' W 084°43'3 6.1
2018-Jul-17 16:30N 45°48' W 084°40'4 7.4
2018-Jul-17 16:00N 45°51' W 084°37'510.8
2018-Jul-17 15:30N 45°47' W 084°42'1 1.9
2018-Jul-17 15:00N 45°46' W 084°43'4 8.5
2018-Jul-17 14:30N 45°49' W 084°39'  
2018-Jul-13 01:35N 45°49' W 084°44'0 2.3
2018-Jul-13 01:29N 45°49' W 084°44'2 0.2
2018-Jul-12 14:46N 45°47' W 084°42'  
Track history (hours):
 
Tides and Currents Weather Stations Pressure Air Temp Water Temp Dewpoint Dewpoint Depression Visibility Wind Speed Wind Dir Waves Ship Positions

Chippewa

Owner: MIFC SHIPPING LLC, Mackinac Island, MI. More information available from US FCC via Universal Licensing System and Coast Guard Vessel Documentation Center.

Last reported at 2018-Jul-22 00:03 UTC. Time now 2018-Jul-22 07:00 UTC.
Position N 45°46' W 084°43'.

Length 27 m.

Type: Passenger vessel. MMSI: 367720370.

Date/timePositionNaut miles runAvg speedWind from/ knotsBaromVisibWave heightAir tempDewpointWater temp
2018-Jul-22 00:03N 45°46' W 084°43'0 0.0
2018-Jul-22 00:00N 45°46' W 084°43'5 9.3
2018-Jul-21 23:30N 45°49' W 084°38'2 3.5
2018-Jul-21 23:00N 45°51' W 084°37'4 8.5
2018-Jul-21 22:30N 45°48' W 084°41'0 0.8
2018-Jul-21 22:00N 45°47' W 084°41'5 9.1
2018-Jul-21 21:30N 45°51' W 084°37'2 3.7
2018-Jul-21 21:00N 45°49' W 084°38'5 9.1
2018-Jul-21 20:29N 45°46' W 084°43'2 4.3
2018-Jul-21 20:00N 45°48' W 084°41'4 8.4
2018-Jul-21 19:29N 45°51' W 084°37'4 8.9
2018-Jul-21 19:01N 45°48' W 084°41'0 0.9
2018-Jul-21 18:31N 45°48' W 084°41'5 8.9
2018-Jul-21 18:00N 45°51' W 084°37'1 3.0
2018-Jul-21 17:30N 45°50' W 084°38'5 9.9
2018-Jul-21 17:00N 45°46' W 084°43'2 4.3
2018-Jul-21 16:29N 45°48' W 084°41'4 8.6
2018-Jul-21 16:00N 45°51' W 084°37'4 8.7
2018-Jul-21 15:30N 45°48' W 084°41'2 4.4
2018-Jul-21 15:01N 45°46' W 084°43'4 8.9
2018-Jul-21 14:30N 45°49' W 084°39'3 2.5
2018-Jul-21 13:30N 45°47' W 084°41'2 4.0
2018-Jul-21 13:01N 45°46' W 084°43'0 0.0
2018-Jul-21 00:00N 45°46' W 084°43'5 9.5
2018-Jul-20 23:31N 45°50' W 084°39'2 3.3
2018-Jul-20 22:59N 45°51' W 084°37'4 8.6
2018-Jul-20 22:30N 45°48' W 084°41'1 1.4
2018-Jul-20 22:00N 45°47' W 084°41'5 9.4
2018-Jul-20 21:30N 45°51' W 084°37'2 3.5
2018-Jul-20 21:00N 45°49' W 084°38'5 9.6
2018-Jul-20 20:30N 45°46' W 084°43'3 6.4
2018-Jul-20 20:00N 45°49' W 084°40'3 6.5
2018-Jul-20 19:30N 45°51' W 084°37'510.0
2018-Jul-20 18:59N 45°47' W 084°42'1 1.6
2018-Jul-20 18:30N 45°48' W 084°41'4 8.9
2018-Jul-20 18:00N 45°51' W 084°37'2 3.1
2018-Jul-20 17:30N 45°50' W 084°38'5 8.6
2018-Jul-20 16:56N 45°46' W 084°43'3 7.0
2018-Jul-20 16:30N 45°48' W 084°40'3 6.9
2018-Jul-20 16:00N 45°51' W 084°37'5 9.3
2018-Jul-20 15:30N 45°47' W 084°41'2 3.4
2018-Jul-20 14:59N 45°46' W 084°43'4 8.9
2018-Jul-20 14:30N 45°49' W 084°39'2 4.5
2018-Jul-20 14:00N 45°51' W 084°37'5 8.7
2018-Jul-20 13:29N 45°47' W 084°41'2 0.2
2018-Jul-20 02:06N 45°46' W 084°43'0 0.1
2018-Jul-20 01:59N 45°46' W 084°43'3 5.4
2018-Jul-20 01:30N 45°49' W 084°44'0 0.9
2018-Jul-20 01:00N 45°49' W 084°44'3 5.7
2018-Jul-20 00:29N 45°46' W 084°43'0 0.0
2018-Jul-20 00:00N 45°46' W 084°43'4 8.8
2018-Jul-19 23:30N 45°49' W 084°39'2 4.0
2018-Jul-19 23:00N 45°51' W 084°37'4 8.1
2018-Jul-19 22:30N 45°48' W 084°41'1 1.6
2018-Jul-19 22:00N 45°47' W 084°42'5 9.7
2018-Jul-19 21:30N 45°51' W 084°37'1 2.8
2018-Jul-19 21:00N 45°50' W 084°38'510.0
2018-Jul-19 20:30N 45°46' W 084°43'2 3.1
2018-Jul-19 20:00N 45°47' W 084°42'5 9.5
2018-Jul-19 19:30N 45°51' W 084°37'4 8.8
2018-Jul-19 19:00N 45°48' W 084°41'0 0.8
2018-Jul-19 18:30N 45°47' W 084°41'5 9.1
2018-Jul-19 17:59N 45°51' W 084°37'1 2.9
2018-Jul-19 17:30N 45°50' W 084°38'510.2
2018-Jul-19 17:00N 45°46' W 084°43'2 3.9
2018-Jul-19 16:30N 45°48' W 084°41'4 8.8
2018-Jul-19 16:00N 45°51' W 084°37'4 8.4
2018-Jul-19 15:30N 45°48' W 084°41'2 4.5
2018-Jul-19 15:00N 45°46' W 084°43'5 8.8
2018-Jul-19 14:28N 45°49' W 084°38'3 2.7
2018-Jul-19 13:30N 45°48' W 084°41'2 4.2
2018-Jul-19 13:00N 45°46' W 084°43'0 0.0
2018-Jul-18 23:56N 45°46' W 084°43'410.5
2018-Jul-18 23:30N 45°49' W 084°39'2 4.0
2018-Jul-18 23:00N 45°51' W 084°37'4 7.9
2018-Jul-18 22:30N 45°48' W 084°40'1 1.7
2018-Jul-18 22:00N 45°47' W 084°41'5 9.7
2018-Jul-18 21:30N 45°51' W 084°37'2 3.1
2018-Jul-18 21:00N 45°50' W 084°38'510.0
2018-Jul-18 20:31N 45°46' W 084°43'2 4.0
2018-Jul-18 20:01N 45°48' W 084°41'4 8.7
2018-Jul-18 19:30N 45°51' W 084°37'4 8.3
2018-Jul-18 19:00N 45°48' W 084°41'1 1.0
2018-Jul-18 18:30N 45°47' W 084°41'5 9.3
2018-Jul-18 18:01N 45°51' W 084°37'1 2.6
2018-Jul-18 17:30N 45°50' W 084°38'1 0.1
2018-Jul-17 19:29N 45°51' W 084°37'510.6
2018-Jul-17 19:00N 45°48' W 084°43'1 2.4
2018-Jul-17 18:30N 45°48' W 084°41'4 8.6
2018-Jul-17 18:00N 45°51' W 084°37'2 3.1
2018-Jul-17 17:30N 45°50' W 084°38'5 9.0
2018-Jul-17 16:57N 45°46' W 084°43'3 6.1
2018-Jul-17 16:30N 45°48' W 084°40'4 7.4
2018-Jul-17 16:00N 45°51' W 084°37'510.8
2018-Jul-17 15:30N 45°47' W 084°42'1 1.9
2018-Jul-17 15:00N 45°46' W 084°43'4 8.5
2018-Jul-17 14:30N 45°49' W 084°39'  
2018-Jul-13 01:35N 45°49' W 084°44'0 2.3
2018-Jul-13 01:29N 45°49' W 084°44'2 0.2
2018-Jul-12 14:46N 45°47' W 084°42'  

Dump ship's entire track history